sensor_id;sensor_type;location;lat;lon;timestamp;pressure;altitude;pressure_sealevel;temperature;humidity
42587;BME280;28216;53.362;-6.288;2023-05-20T00:00:30;102825.34;;;15.56;100.00
42587;BME280;28216;53.362;-6.288;2023-05-20T00:03:05;102832.44;;;15.56;100.00
42587;BME280;28216;53.362;-6.288;2023-05-20T00:05:32;102831.34;;;15.58;100.00
42587;BME280;28216;53.362;-6.288;2023-05-20T00:08:20;102835.41;;;15.63;100.00
42587;BME280;28216;53.362;-6.288;2023-05-20T00:10:47;102832.09;;;15.61;100.00
42587;BME280;28216;53.362;-6.288;2023-05-20T00:13:25;102835.38;;;15.53;100.00
42587;BME280;28216;53.362;-6.288;2023-05-20T00:16:14;102838.56;;;15.56;100.00
42587;BME280;28216;53.362;-6.288;2023-05-20T00:18:52;102832.59;;;15.54;100.00
42587;BME280;28216;53.362;-6.288;2023-05-20T00:21:36;102828.56;;;15.60;100.00
42587;BME280;28216;53.362;-6.288;2023-05-20T00:24:13;102830.53;;;15.58;100.00
42587;BME280;28216;53.362;-6.288;2023-05-20T00:26:38;102825.25;;;15.58;100.00
42587;BME280;28216;53.362;-6.288;2023-05-20T00:29:04;102825.94;;;15.60;100.00
42587;BME280;28216;53.362;-6.288;2023-05-20T00:31:32;102818.25;;;15.57;100.00
42587;BME280;28216;53.362;-6.288;2023-05-20T00:33:59;102837.63;;;15.57;100.00
42587;BME280;28216;53.362;-6.288;2023-05-20T00:36:28;102836.75;;;15.57;100.00
42587;BME280;28216;53.362;-6.288;2023-05-20T00:38:54;102836.66;;;15.58;100.00
42587;BME280;28216;53.362;-6.288;2023-05-20T00:41:24;102829.09;;;15.54;100.00
42587;BME280;28216;53.362;-6.288;2023-05-20T00:44:00;102823.13;;;15.52;100.00
42587;BME280;28216;53.362;-6.288;2023-05-20T00:46:35;102821.88;;;15.46;100.00
42587;BME280;28216;53.362;-6.288;2023-05-20T00:49:07;102831.34;;;15.49;100.00
42587;BME280;28216;53.362;-6.288;2023-05-20T00:51:40;102823.00;;;15.44;100.00
42587;BME280;28216;53.362;-6.288;2023-05-20T00:54:09;102823.44;;;15.39;100.00
42587;BME280;28216;53.362;-6.288;2023-05-20T00:56:45;102821.47;;;15.41;100.00
42587;BME280;28216;53.362;-6.288;2023-05-20T00:59:11;102821.34;;;15.43;100.00
42587;BME280;28216;53.362;-6.288;2023-05-20T01:01:37;102820.78;;;15.39;100.00
42587;BME280;28216;53.362;-6.288;2023-05-20T01:04:10;102818.69;;;15.43;100.00
42587;BME280;28216;53.362;-6.288;2023-05-20T01:06:40;102820.09;;;15.37;100.00
42587;BME280;28216;53.362;-6.288;2023-05-20T01:09:11;102817.88;;;15.33;100.00
42587;BME280;28216;53.362;-6.288;2023-05-20T01:11:43;102812.16;;;15.37;100.00
42587;BME280;28216;53.362;-6.288;2023-05-20T01:14:17;102807.56;;;15.39;100.00
42587;BME280;28216;53.362;-6.288;2023-05-20T01:16:45;102805.75;;;15.40;100.00
42587;BME280;28216;53.362;-6.288;2023-05-20T01:19:32;102800.31;;;15.41;100.00
42587;BME280;28216;53.362;-6.288;2023-05-20T01:22:05;102799.63;;;15.39;100.00
42587;BME280;28216;53.362;-6.288;2023-05-20T01:24:36;102799.78;;;15.38;100.00
42587;BME280;28216;53.362;-6.288;2023-05-20T01:27:04;102802.00;;;15.42;100.00
42587;BME280;28216;53.362;-6.288;2023-05-20T01:29:48;102795.19;;;15.40;100.00
42587;BME280;28216;53.362;-6.288;2023-05-20T01:32:46;102796.72;;;15.42;100.00
42587;BME280;28216;53.362;-6.288;2023-05-20T01:35:19;102798.53;;;15.42;100.00
42587;BME280;28216;53.362;-6.288;2023-05-20T01:37:52;102795.72;;;15.43;100.00
42587;BME280;28216;53.362;-6.288;2023-05-20T01:40:28;102785.59;;;15.39;100.00
42587;BME280;28216;53.362;-6.288;2023-05-20T01:43:00;102785.88;;;15.36;100.00
42587;BME280;28216;53.362;-6.288;2023-05-20T01:45:32;102778.06;;;15.34;100.00
42587;BME280;28216;53.362;-6.288;2023-05-20T01:47:58;102788.25;;;15.29;100.00
42587;BME280;28216;53.362;-6.288;2023-05-20T01:50:32;102786.00;;;15.34;100.00
42587;BME280;28216;53.362;-6.288;2023-05-20T01:53:00;102783.22;;;15.36;100.00
42587;BME280;28216;53.362;-6.288;2023-05-20T01:55:35;102782.66;;;15.32;100.00
42587;BME280;28216;53.362;-6.288;2023-05-20T01:58:01;102781.00;;;15.31;100.00
42587;BME280;28216;53.362;-6.288;2023-05-20T02:00:37;102776.97;;;15.27;100.00
42587;BME280;28216;53.362;-6.288;2023-05-20T02:03:08;102776.41;;;15.23;100.00
42587;BME280;28216;53.362;-6.288;2023-05-20T02:05:33;102782.00;;;15.20;100.00
42587;BME280;28216;53.362;-6.288;2023-05-20T02:07:59;102770.03;;;15.16;100.00
42587;BME280;28216;53.362;-6.288;2023-05-20T02:10:29;102769.91;;;15.08;100.00
42587;BME280;28216;53.362;-6.288;2023-05-20T02:12:54;102769.22;;;15.06;100.00
42587;BME280;28216;53.362;-6.288;2023-05-20T02:15:24;102764.34;;;15.02;100.00
42587;BME280;28216;53.362;-6.288;2023-05-20T02:17:52;102771.44;;;15.01;100.00
42587;BME280;28216;53.362;-6.288;2023-05-20T02:20:23;102759.34;;;14.99;100.00
42587;BME280;28216;53.362;-6.288;2023-05-20T02:22:48;102761.16;;;14.98;100.00
42587;BME280;28216;53.362;-6.288;2023-05-20T02:25:16;102757.25;;;15.02;100.00
42587;BME280;28216;53.362;-6.288;2023-05-20T02:27:41;102758.63;;;14.97;100.00
42587;BME280;28216;53.362;-6.288;2023-05-20T02:30:17;102755.84;;;14.98;100.00
42587;BME280;28216;53.362;-6.288;2023-05-20T02:32:47;102763.09;;;14.96;100.00
42587;BME280;28216;53.362;-6.288;2023-05-20T02:35:19;102760.72;;;14.93;100.00
42587;BME280;28216;53.362;-6.288;2023-05-20T02:37:52;102760.16;;;14.99;100.00
42587;BME280;28216;53.362;-6.288;2023-05-20T02:40:22;102756.00;;;14.97;100.00
42587;BME280;28216;53.362;-6.288;2023-05-20T02:43:07;102762.66;;;14.91;100.00
42587;BME280;28216;53.362;-6.288;2023-05-20T02:45:36;102759.91;;;14.92;100.00
42587;BME280;28216;53.362;-6.288;2023-05-20T02:48:11;102758.50;;;14.98;100.00
42587;BME280;28216;53.362;-6.288;2023-05-20T02:50:40;102763.19;;;14.85;100.00
42587;BME280;28216;53.362;-6.288;2023-05-20T02:53:08;102754.44;;;14.84;100.00
42587;BME280;28216;53.362;-6.288;2023-05-20T02:55:45;102753.19;;;14.79;100.00
42587;BME280;28216;53.362;-6.288;2023-05-20T02:58:13;102744.44;;;14.78;100.00
42587;BME280;28216;53.362;-6.288;2023-05-20T03:00:41;102749.72;;;14.78;100.00
42587;BME280;28216;53.362;-6.288;2023-05-20T03:03:10;102749.44;;;14.81;100.00
42587;BME280;28216;53.362;-6.288;2023-05-20T03:05:38;102744.97;;;14.72;100.00
42587;BME280;28216;53.362;-6.288;2023-05-20T03:08:08;102747.47;;;14.74;100.00
42587;BME280;28216;53.362;-6.288;2023-05-20T03:10:38;102742.63;;;14.69;100.00
42587;BME280;28216;53.362;-6.288;2023-05-20T03:13:07;102737.47;;;14.77;100.00
42587;BME280;28216;53.362;-6.288;2023-05-20T03:15:33;102733.03;;;14.78;100.00
42587;BME280;28216;53.362;-6.288;2023-05-20T03:18:00;102722.47;;;14.78;100.00
42587;BME280;28216;53.362;-6.288;2023-05-20T03:20:28;102726.34;;;14.64;100.00
42587;BME280;28216;53.362;-6.288;2023-05-20T03:23:04;102729.69;;;14.76;100.00
42587;BME280;28216;53.362;-6.288;2023-05-20T03:25:31;102726.34;;;14.74;100.00
42587;BME280;28216;53.362;-6.288;2023-05-20T03:27:56;102719.97;;;14.67;100.00
42587;BME280;28216;53.362;-6.288;2023-05-20T03:30:28;102727.19;;;14.65;100.00
42587;BME280;28216;53.362;-6.288;2023-05-20T03:32:56;102725.53;;;14.63;100.00
42587;BME280;28216;53.362;-6.288;2023-05-20T03:35:24;102716.34;;;14.68;100.00
42587;BME280;28216;53.362;-6.288;2023-05-20T03:37:55;102714.41;;;14.70;100.00
42587;BME280;28216;53.362;-6.288;2023-05-20T03:40:31;102716.22;;;14.69;100.00
42587;BME280;28216;53.362;-6.288;2023-05-20T03:43:11;102713.56;;;14.69;100.00
42587;BME280;28216;53.362;-6.288;2023-05-20T03:45:45;102713.03;;;14.66;100.00
42587;BME280;28216;53.362;-6.288;2023-05-20T03:48:19;102708.00;;;14.62;100.00
42587;BME280;28216;53.362;-6.288;2023-05-20T03:50:45;102706.63;;;14.58;100.00
42587;BME280;28216;53.362;-6.288;2023-05-20T03:53:16;102707.31;;;14.60;100.00
42587;BME280;28216;53.362;-6.288;2023-05-20T03:55:44;102702.59;;;14.64;100.00
42587;BME280;28216;53.362;-6.288;2023-05-20T03:58:13;102696.19;;;14.67;100.00
42587;BME280;28216;53.362;-6.288;2023-05-20T04:00:53;102705.50;;;14.71;100.00
42587;BME280;28216;53.362;-6.288;2023-05-20T04:03:21;102702.47;;;14.66;100.00
42587;BME280;28216;53.362;-6.288;2023-05-20T04:05:57;102703.28;;;14.66;100.00
42587;BME280;28216;53.362;-6.288;2023-05-20T04:08:27;102702.19;;;14.59;100.00
42587;BME280;28216;53.362;-6.288;2023-05-20T04:11:03;102702.19;;;14.59;100.00
42587;BME280;28216;53.362;-6.288;2023-05-20T04:13:29;102696.34;;;14.65;100.00
42587;BME280;28216;53.362;-6.288;2023-05-20T04:16:05;102691.91;;;14.56;100.00
42587;BME280;28216;53.362;-6.288;2023-05-20T04:18:33;102700.50;;;14.58;100.00
42587;BME280;28216;53.362;-6.288;2023-05-20T04:21:05;102695.78;;;14.61;100.00
42587;BME280;28216;53.362;-6.288;2023-05-20T04:23:32;102698.00;;;14.66;100.00
42587;BME280;28216;53.362;-6.288;2023-05-20T04:25:58;102692.59;;;14.58;100.00
42587;BME280;28216;53.362;-6.288;2023-05-20T04:28:27;102688.97;;;14.59;100.00
42587;BME280;28216;53.362;-6.288;2023-05-20T04:31:01;102691.47;;;14.60;100.00
42587;BME280;28216;53.362;-6.288;2023-05-20T04:33:32;102693.16;;;14.61;100.00
42587;BME280;28216;53.362;-6.288;2023-05-20T04:36:12;102700.22;;;14.61;100.00
42587;BME280;28216;53.362;-6.288;2023-05-20T04:38:43;102702.44;;;14.56;100.00
42587;BME280;28216;53.362;-6.288;2023-05-20T04:41:16;102711.91;;;14.58;100.00
42587;BME280;28216;53.362;-6.288;2023-05-20T04:43:42;102713.56;;;14.59;100.00
42587;BME280;28216;53.362;-6.288;2023-05-20T04:46:13;102704.53;;;14.62;100.00
42587;BME280;28216;53.362;-6.288;2023-05-20T04:48:41;102699.13;;;14.54;100.00
42587;BME280;28216;53.362;-6.288;2023-05-20T04:51:09;102706.47;;;14.60;100.00
42587;BME280;28216;53.362;-6.288;2023-05-20T04:53:39;102706.63;;;14.58;100.00
42587;BME280;28216;53.362;-6.288;2023-05-20T04:56:10;102704.97;;;14.57;100.00
42587;BME280;28216;53.362;-6.288;2023-05-20T04:58:36;102702.31;;;14.57;100.00
42587;BME280;28216;53.362;-6.288;2023-05-20T05:01:12;102702.19;;;14.59;100.00
42587;BME280;28216;53.362;-6.288;2023-05-20T05:03:45;102700.50;;;14.58;100.00
42587;BME280;28216;53.362;-6.288;2023-05-20T05:09:20;102699.81;;;14.66;100.00
42587;BME280;28216;53.362;-6.288;2023-05-20T05:11:52;102698.56;;;14.70;100.00
42587;BME280;28216;53.362;-6.288;2023-05-20T05:14:19;102693.69;;;14.75;100.00
42587;BME280;28216;53.362;-6.288;2023-05-20T05:16:55;102701.47;;;14.76;100.00
42587;BME280;28216;53.362;-6.288;2023-05-20T05:19:30;102706.50;;;14.79;100.00
42587;BME280;28216;53.362;-6.288;2023-05-20T05:21:55;102703.28;;;14.76;100.00
42587;BME280;28216;53.362;-6.288;2023-05-20T05:24:21;102706.50;;;14.79;100.00
42587;BME280;28216;53.362;-6.288;2023-05-20T05:26:55;102700.38;;;14.79;100.00
42587;BME280;28216;53.362;-6.288;2023-05-20T05:29:33;102709.69;;;14.83;100.00
42587;BME280;28216;53.362;-6.288;2023-05-20T05:31:58;102705.38;;;14.82;100.00
42587;BME280;28216;53.362;-6.288;2023-05-20T05:34:26;102698.84;;;14.67;100.00
42587;BME280;28216;53.362;-6.288;2023-05-20T05:37:30;102693.44;;;14.68;100.00
42587;BME280;28216;53.362;-6.288;2023-05-20T05:39:55;102692.44;;;14.69;100.00
42587;BME280;28216;53.362;-6.288;2023-05-20T05:42:21;102696.19;;;14.76;100.00
42587;BME280;28216;53.362;-6.288;2023-05-20T05:44:47;102695.50;;;14.74;100.00
42587;BME280;28216;53.362;-6.288;2023-05-20T05:47:17;102690.91;;;14.67;100.00
42587;BME280;28216;53.362;-6.288;2023-05-20T05:49:45;102698.28;;;14.73;100.00
42587;BME280;28216;53.362;-6.288;2023-05-20T05:52:13;102699.53;;;14.69;100.00
42587;BME280;28216;53.362;-6.288;2023-05-20T05:54:39;102701.75;;;14.73;100.00
42587;BME280;28216;53.362;-6.288;2023-05-20T05:57:06;102706.06;;;14.74;100.00
42587;BME280;28216;53.362;-6.288;2023-05-20T05:59:34;102697.19;;;14.75;100.00
42587;BME280;28216;53.362;-6.288;2023-05-20T06:01:59;102696.91;;;14.78;100.00
42587;BME280;28216;53.362;-6.288;2023-05-20T06:04:28;102688.00;;;14.79;100.00
42587;BME280;28216;53.362;-6.288;2023-05-20T06:06:58;102692.63;;;14.87;100.00
42587;BME280;28216;53.362;-6.288;2023-05-20T06:09:23;102694.41;;;14.86;100.00
42587;BME280;28216;53.362;-6.288;2023-05-20T06:12:07;102687.59;;;14.84;100.00
42587;BME280;28216;53.362;-6.288;2023-05-20T06:14:35;102688.28;;;14.86;100.00
42587;BME280;28216;53.362;-6.288;2023-05-20T06:17:23;102696.50;;;14.92;100.00
42587;BME280;28216;53.362;-6.288;2023-05-20T06:19:53;102693.44;;;14.97;100.00
42587;BME280;28216;53.362;-6.288;2023-05-20T06:22:42;102689.97;;;14.87;100.00
42587;BME280;28216;53.362;-6.288;2023-05-20T06:25:10;102695.81;;;14.90;100.00
42587;BME280;28216;53.362;-6.288;2023-05-20T06:27:38;102693.44;;;14.87;100.00
42587;BME280;28216;53.362;-6.288;2023-05-20T06:30:04;102690.81;;;14.87;100.00
42587;BME280;28216;53.362;-6.288;2023-05-20T06:32:33;102698.84;;;14.86;100.00
42587;BME280;28216;53.362;-6.288;2023-05-20T06:34:59;102703.28;;;14.85;100.00
42587;BME280;28216;53.362;-6.288;2023-05-20T06:37:29;102709.28;;;14.87;100.00
42587;BME280;28216;53.362;-6.288;2023-05-20T06:39:57;102708.16;;;14.80;100.00
42587;BME280;28216;53.362;-6.288;2023-05-20T06:42:28;102705.22;;;14.83;100.00
42587;BME280;28216;53.362;-6.288;2023-05-20T06:44:54;102707.31;;;14.80;100.00
42587;BME280;28216;53.362;-6.288;2023-05-20T06:47:21;102704.25;;;14.75;100.00
42587;BME280;28216;53.362;-6.288;2023-05-20T06:49:50;102704.25;;;14.75;100.00
42587;BME280;28216;53.362;-6.288;2023-05-20T06:52:16;102702.59;;;14.74;100.00
42587;BME280;28216;53.362;-6.288;2023-05-20T06:54:41;102693.28;;;14.79;100.00
42587;BME280;28216;53.362;-6.288;2023-05-20T06:57:07;102696.09;;;14.87;100.00
42587;BME280;28216;53.362;-6.288;2023-05-20T06:59:34;102695.81;;;14.90;100.00
42587;BME280;28216;53.362;-6.288;2023-05-20T07:02:00;102694.56;;;14.94;100.00
42587;BME280;28216;53.362;-6.288;2023-05-20T07:04:25;102692.88;;;14.93;100.00
42587;BME280;28216;53.362;-6.288;2023-05-20T07:06:51;102694.28;;;14.98;100.00
42587;BME280;28216;53.362;-6.288;2023-05-20T07:09:31;102694.81;;;15.01;100.00
42587;BME280;28216;53.362;-6.288;2023-05-20T07:12:16;102693.00;;;15.02;100.00
42587;BME280;28216;53.362;-6.288;2023-05-20T07:18:11;102698.00;;;15.05;100.00
42587;BME280;28216;53.362;-6.288;2023-05-20T07:20:40;102704.00;;;15.07;100.00
42587;BME280;28216;53.362;-6.288;2023-05-20T07:23:05;102707.88;;;15.12;100.00
42587;BME280;28216;53.362;-6.288;2023-05-20T07:28:53;102693.84;;;15.12;100.00
42587;BME280;28216;53.362;-6.288;2023-05-20T07:31:19;102706.06;;;15.13;100.00
42587;BME280;28216;53.362;-6.288;2023-05-20T07:33:44;102706.91;;;15.13;100.00
42587;BME280;28216;53.362;-6.288;2023-05-20T07:36:12;102693.41;;;15.16;100.00
42587;BME280;28216;53.362;-6.288;2023-05-20T07:38:39;102691.16;;;15.21;100.00
42587;BME280;28216;53.362;-6.288;2023-05-20T07:41:06;102693.66;;;15.23;100.00
42587;BME280;28216;53.362;-6.288;2023-05-20T07:43:32;102693.81;;;15.21;100.00
42587;BME280;28216;53.362;-6.288;2023-05-20T07:46:02;102703.25;;;15.24;100.00
42587;BME280;28216;53.362;-6.288;2023-05-20T07:48:28;102706.59;;;15.26;100.00
42587;BME280;28216;53.362;-6.288;2023-05-20T07:50:53;102701.00;;;15.39;100.00
42587;BME280;28216;53.362;-6.288;2023-05-20T07:53:46;102704.34;;;15.41;100.00
42587;BME280;28216;53.362;-6.288;2023-05-20T07:56:17;102710.16;;;15.44;100.00
42587;BME280;28216;53.362;-6.288;2023-05-20T07:58:50;102718.38;;;15.41;100.00
42587;BME280;28216;53.362;-6.288;2023-05-20T08:01:21;102717.41;;;15.42;100.00
42587;BME280;28216;53.362;-6.288;2023-05-20T08:04:00;102717.84;;;15.38;100.00
42587;BME280;28216;53.362;-6.288;2023-05-20T08:07:19;102711.00;;;15.45;100.00
42587;BME280;28216;53.362;-6.288;2023-05-20T08:09:53;102710.41;;;15.51;100.00
42587;BME280;28216;53.362;-6.288;2023-05-20T08:12:34;102712.66;;;15.46;100.00
42587;BME280;28216;53.362;-6.288;2023-05-20T08:15:22;102704.03;;;15.44;100.00
42587;BME280;28216;53.362;-6.288;2023-05-20T08:17:50;102699.31;;;15.47;100.00
42587;BME280;28216;53.362;-6.288;2023-05-20T08:20:20;102708.75;;;15.50;100.00
42587;BME280;28216;53.362;-6.288;2023-05-20T08:22:51;102700.38;;;15.54;100.00
42587;BME280;28216;53.362;-6.288;2023-05-20T08:25:20;102697.09;;;15.62;100.00
42587;BME280;28216;53.362;-6.288;2023-05-20T08:27:48;102698.91;;;15.62;100.00
42587;BME280;28216;53.362;-6.288;2023-05-20T08:30:13;102694.97;;;15.66;100.00
42587;BME280;28216;53.362;-6.288;2023-05-20T08:32:39;102697.91;;;15.63;100.00
42587;BME280;28216;53.362;-6.288;2023-05-20T08:35:06;102696.34;;;15.70;100.00
42587;BME280;28216;53.362;-6.288;2023-05-20T08:37:32;102696.06;;;15.73;100.00
42587;BME280;28216;53.362;-6.288;2023-05-20T08:39:57;102689.94;;;15.72;100.00
42587;BME280;28216;53.362;-6.288;2023-05-20T08:42:23;102685.28;;;15.84;100.00
42587;BME280;28216;53.362;-6.288;2023-05-20T08:44:53;102692.94;;;15.87;100.00
42587;BME280;28216;53.362;-6.288;2023-05-20T08:47:21;102684.72;;;15.90;100.00
42587;BME280;28216;53.362;-6.288;2023-05-20T08:49:49;102680.41;;;15.89;100.00
42587;BME280;28216;53.362;-6.288;2023-05-20T08:52:17;102680.25;;;15.91;100.00
42587;BME280;28216;53.362;-6.288;2023-05-20T08:54:47;102682.75;;;15.92;100.00
42587;BME280;28216;53.362;-6.288;2023-05-20T08:57:13;102685.53;;;15.91;100.00
42587;BME280;28216;53.362;-6.288;2023-05-20T08:59:44;102676.19;;;15.96;100.00
42587;BME280;28216;53.362;-6.288;2023-05-20T09:02:11;102675.19;;;15.97;100.00
42587;BME280;28216;53.362;-6.288;2023-05-20T09:04:37;102677.56;;;16.00;100.00
42587;BME280;28216;53.362;-6.288;2023-05-20T09:07:04;102663.88;;;16.05;100.00
42587;BME280;28216;53.362;-6.288;2023-05-20T09:09:31;102663.50;;;16.00;100.00
42587;BME280;28216;53.362;-6.288;2023-05-20T09:12:03;102668.34;;;16.04;100.00
42587;BME280;28216;53.362;-6.288;2023-05-20T09:14:38;102664.47;;;15.99;100.00
42587;BME280;28216;53.362;-6.288;2023-05-20T09:17:04;102661.97;;;15.97;100.00
42587;BME280;28216;53.362;-6.288;2023-05-20T09:19:34;102670.97;;;16.04;100.00
42587;BME280;28216;53.362;-6.288;2023-05-20T09:22:02;102670.47;;;16.18;100.00
42587;BME280;28216;53.362;-6.288;2023-05-20T09:24:31;102667.81;;;16.18;100.00
42587;BME280;28216;53.362;-6.288;2023-05-20T09:27:00;102662.91;;;16.24;100.00
42587;BME280;28216;53.362;-6.288;2023-05-20T09:29:25;102667.56;;;16.39;100.00
42587;BME280;28216;53.362;-6.288;2023-05-20T09:31:51;102660.84;;;16.45;100.00
42587;BME280;28216;53.362;-6.288;2023-05-20T09:34:19;102665.81;;;16.48;100.00
42587;BME280;28216;53.362;-6.288;2023-05-20T09:36:48;102669.69;;;16.53;100.00
42587;BME280;28216;53.362;-6.288;2023-05-20T09:39:18;102665.44;;;16.61;100.00
42587;BME280;28216;53.362;-6.288;2023-05-20T09:42:11;102672.97;;;16.65;100.00
42587;BME280;28216;53.362;-6.288;2023-05-20T09:44:41;102674.75;;;16.65;100.00
42587;BME280;28216;53.362;-6.288;2023-05-20T09:47:09;102670.00;;;16.68;100.00
42587;BME280;28216;53.362;-6.288;2023-05-20T09:49:36;102671.06;;;16.75;100.00
42587;BME280;28216;53.362;-6.288;2023-05-20T09:52:03;102670.44;;;16.81;100.00
42587;BME280;28216;53.362;-6.288;2023-05-20T09:54:29;102668.56;;;16.74;100.00
42587;BME280;28216;53.362;-6.288;2023-05-20T09:56:58;102667.22;;;16.25;100.00
42587;BME280;28216;53.362;-6.288;2023-05-20T09:59:25;102659.31;;;16.42;100.00
42587;BME280;28216;53.362;-6.288;2023-05-20T10:01:51;102665.91;;;16.56;100.00
42587;BME280;28216;53.362;-6.288;2023-05-20T10:04:18;102663.03;;;16.67;100.00
42587;BME280;28216;53.362;-6.288;2023-05-20T10:09:44;102646.38;;;16.39;100.00
42587;BME280;28216;53.362;-6.288;2023-05-20T10:12:41;102648.13;;;16.48;100.00
42587;BME280;28216;53.362;-6.288;2023-05-20T10:15:29;102641.06;;;16.57;100.00
42587;BME280;28216;53.362;-6.288;2023-05-20T10:20:48;102648.66;;;16.70;100.00
42587;BME280;28216;53.362;-6.288;2023-05-20T10:23:28;102650.91;;;16.82;100.00
42587;BME280;28216;53.362;-6.288;2023-05-20T10:25:55;102645.00;;;16.89;100.00
42587;BME280;28216;53.362;-6.288;2023-05-20T10:28:30;102651.66;;;16.93;100.00
42587;BME280;28216;53.362;-6.288;2023-05-20T10:30:57;102658.31;;;16.97;100.00
42587;BME280;28216;53.362;-6.288;2023-05-20T10:33:25;102653.22;;;17.03;100.00
42587;BME280;28216;53.362;-6.288;2023-05-20T10:35:53;102648.00;;;17.11;100.00
42587;BME280;28216;53.362;-6.288;2023-05-20T10:38:19;102642.28;;;17.24;100.00
42587;BME280;28216;53.362;-6.288;2023-05-20T10:40:46;102642.44;;;17.23;100.00
42587;BME280;28216;53.362;-6.288;2023-05-20T10:43:30;102651.53;;;17.20;100.00
42587;BME280;28216;53.362;-6.288;2023-05-20T10:45:56;102639.94;;;17.21;100.00
42587;BME280;28216;53.362;-6.288;2023-05-20T10:48:28;102647.25;;;17.27;100.00
42587;BME280;28216;53.362;-6.288;2023-05-20T10:50:55;102640.88;;;17.46;100.00
42587;BME280;28216;53.362;-6.288;2023-05-20T10:53:22;102638.75;;;17.50;100.00
42587;BME280;28216;53.362;-6.288;2023-05-20T10:55:50;102637.91;;;17.49;100.00
42587;BME280;28216;53.362;-6.288;2023-05-20T10:58:16;102636.94;;;17.50;100.00
42587;BME280;28216;53.362;-6.288;2023-05-20T11:00:43;102635.75;;;17.44;100.00
42587;BME280;28216;53.362;-6.288;2023-05-20T11:03:08;102633.44;;;17.50;100.00
42587;BME280;28216;53.362;-6.288;2023-05-20T11:05:38;102635.22;;;17.41;100.00
42587;BME280;28216;53.362;-6.288;2023-05-20T11:08:08;102628.06;;;17.67;100.00
42587;BME280;28216;53.362;-6.288;2023-05-20T11:10:34;102631.91;;;17.73;100.00
42587;BME280;28216;53.362;-6.288;2023-05-20T11:13:02;102625.16;;;17.53;100.00
42587;BME280;28216;53.362;-6.288;2023-05-20T11:15:28;102627.38;;;17.65;100.00
42587;BME280;28216;53.362;-6.288;2023-05-20T11:17:58;102624.94;;;17.72;100.00
42587;BME280;28216;53.362;-6.288;2023-05-20T11:20:25;102625.94;;;17.71;100.00
42587;BME280;28216;53.362;-6.288;2023-05-20T11:22:51;102626.00;;;17.87;100.00
42587;BME280;28216;53.362;-6.288;2023-05-20T11:25:17;102620.38;;;17.90;100.00
42587;BME280;28216;53.362;-6.288;2023-05-20T11:27:43;102621.69;;;17.86;100.00
42587;BME280;28216;53.362;-6.288;2023-05-20T11:30:13;102613.69;;;17.78;100.00
42587;BME280;28216;53.362;-6.288;2023-05-20T11:33:04;102620.22;;;17.92;100.00
42587;BME280;28216;53.362;-6.288;2023-05-20T11:35:31;102614.41;;;17.88;100.00
42587;BME280;28216;53.362;-6.288;2023-05-20T11:38:05;102609.59;;;17.92;100.00
42587;BME280;28216;53.362;-6.288;2023-05-20T11:43:02;102604.72;;;17.79;100.00
42587;BME280;28216;53.362;-6.288;2023-05-20T11:45:45;102611.59;;;17.98;100.00
42587;BME280;28216;53.362;-6.288;2023-05-20T11:48:11;102603.31;;;18.09;100.00
42587;BME280;28216;53.362;-6.288;2023-05-20T11:50:41;102609.47;;;18.09;100.00
42587;BME280;28216;53.362;-6.288;2023-05-20T11:53:09;102605.78;;;17.94;100.00
42587;BME280;28216;53.362;-6.288;2023-05-20T11:55:49;102597.53;;;18.14;100.00
42587;BME280;28216;53.362;-6.288;2023-05-20T11:58:22;102598.84;;;18.09;100.00
42587;BME280;28216;53.362;-6.288;2023-05-20T12:00:51;102603.31;;;18.09;100.00
42587;BME280;28216;53.362;-6.288;2023-05-20T12:03:17;102599.34;;;18.13;100.00
42587;BME280;28216;53.362;-6.288;2023-05-20T12:05:43;102604.19;;;18.26;100.00
42587;BME280;28216;53.362;-6.288;2023-05-20T12:08:09;102597.19;;;18.08;100.00
42587;BME280;28216;53.362;-6.288;2023-05-20T12:52:05;102575.78;;;18.10;100.00
42587;BME280;28216;53.362;-6.288;2023-05-20T14:23:41;102484.16;;;18.71;100.00
42587;BME280;28216;53.362;-6.288;2023-05-20T14:26:09;102480.31;;;18.73;100.00
42587;BME280;28216;53.362;-6.288;2023-05-20T14:28:41;102488.28;;;18.57;100.00
42587;BME280;28216;53.362;-6.288;2023-05-20T14:31:21;102487.28;;;18.75;100.00
42587;BME280;28216;53.362;-6.288;2023-05-20T14:34:03;102481.97;;;18.75;100.00
42587;BME280;28216;53.362;-6.288;2023-05-20T14:36:36;102483.00;;;18.65;100.00
42587;BME280;28216;53.362;-6.288;2023-05-20T14:39:05;102481.50;;;18.71;100.00
42587;BME280;28216;53.362;-6.288;2023-05-20T14:41:41;102480.00;;;18.68;100.00
42587;BME280;28216;53.362;-6.288;2023-05-20T14:44:28;102471.03;;;18.69;100.00
42587;BME280;28216;53.362;-6.288;2023-05-20T14:47:06;102460.56;;;18.60;100.00
42587;BME280;28216;53.362;-6.288;2023-05-20T14:49:34;102474.22;;;18.65;100.00
42587;BME280;28216;53.362;-6.288;2023-05-20T14:52:30;102469.06;;;18.63;100.00
42587;BME280;28216;53.362;-6.288;2023-05-20T14:55:11;102473.03;;;18.67;100.00
42587;BME280;28216;53.362;-6.288;2023-05-20T14:57:36;102464.38;;;18.57;100.00
42587;BME280;28216;53.362;-6.288;2023-05-20T15:00:17;102470.84;;;18.55;100.00
42587;BME280;28216;53.362;-6.288;2023-05-20T15:03:22;102461.25;;;18.37;100.00
42587;BME280;28216;53.362;-6.288;2023-05-20T15:05:57;102462.78;;;18.24;100.00
42587;BME280;28216;53.362;-6.288;2023-05-20T15:11:23;102448.19;;;18.28;100.00
42587;BME280;28216;53.362;-6.288;2023-05-20T15:25:39;102423.25;;;18.45;100.00
42587;BME280;28216;53.362;-6.288;2023-05-20T15:28:08;102430.38;;;18.45;100.00
42587;BME280;28216;53.362;-6.288;2023-05-20T15:31:03;102435.16;;;18.57;100.00
42587;BME280;28216;53.362;-6.288;2023-05-20T15:33:41;102441.50;;;18.64;100.00